Time;durP1;ratioP1;P1;durP2;ratioP2;P2;SDS_P1;SDS_P2;PMS_P1;PMS_P2;Temp;Humidity;BMP_temperature;BMP_pressure;BME280_temperature;BME280_humidity;BME280_pressure;Samples;Min_cycle;Max_cycle;Signal;HPM_P1;HPM_P2
2024/04/18 00:01:00;;;;;;;1.98;1.58;;;;;;;10.45;56.93;100820.66;5483212;25;100032;-75
2024/04/18 00:03:26;;;;;;;3.20;1.25;;;;;;;10.47;57.60;100826.78;5479251;25;94952;-75
2024/04/18 00:05:54;;;;;;;;;;;;;;;10.55;57.29;100831.81;5483345;25;95121;-77
2024/04/18 00:08:20;;;;;;;4.70;1.20;;;;;;;10.91;55.97;100833.16;5481009;25;95717;-76
2024/04/18 00:10:51;;;;;;;;;;;;;;;10.70;56.66;100832.13;5491837;25;96834;-76
2024/04/18 00:13:17;;;;;;;1.33;1.13;;;;;;;10.37;57.64;100834.13;5497304;25;95139;-76
2024/04/18 00:15:47;;;;;;;;;;;;;;;10.32;58.82;100833.44;5477147;25;94735;-76
2024/04/18 00:18:13;;;;;;;2.35;1.75;;;;;;;10.38;58.73;100829.72;5482340;25;96830;-76
2024/04/18 00:20:41;;;;;;;;;;;;;;;10.27;59.07;100835.38;5483528;25;100206;-78
2024/04/18 00:23:06;;;;;;;2.13;1.35;;;;;;;10.16;59.50;100831.31;5483804;25;95359;-76
2024/04/18 00:25:34;;;;;;;;;;;;;;;10.12;60.01;100837.59;5493531;25;95116;-77
2024/04/18 00:28:00;;;;;;;2.33;1.40;;;;;;;10.02;60.38;100836.16;5489026;25;95698;-75
2024/04/18 00:30:27;;;;;;;;;;;;;;;10.19;59.95;100839.16;5468889;25;96082;-75
2024/04/18 00:32:56;;;;;;;3.30;1.15;;;;;;;10.40;58.90;100835.81;5473767;25;94702;-75
2024/04/18 00:35:24;;;;;;;1.42;1.33;;;;;;;10.37;59.52;100841.22;5464706;25;95030;-78
2024/04/18 00:37:49;;;;;;;5.15;1.42;;;;;;;10.46;58.61;100842.66;5470280;25;99539;-76
2024/04/18 00:40:17;;;;;;;;;;;;;;;10.53;58.42;100841.56;5476011;25;97546;-76
2024/04/18 00:42:43;;;;;;;3.47;1.52;;;;;;;10.50;58.30;100834.59;5483562;25;94781;-75
2024/04/18 00:45:11;;;;;;;;;;;;;;;10.63;58.10;100838.53;5488501;25;94823;-75
2024/04/18 00:47:37;;;;;;;1.83;1.38;;;;;;;10.73;57.64;100841.75;5483096;25;97221;-75
2024/04/18 00:50:09;;;;;;;;;;;;;;;10.52;58.40;100847.75;5468735;25;96445;-75
2024/04/18 00:52:35;;;;;;;2.00;1.63;;;;;;;10.46;58.46;100845.31;5467653;25;94838;-76
2024/04/18 00:55:04;;;;;;;;;;;;;;;10.46;58.51;100856.75;5486211;25;95341;-75
2024/04/18 00:57:32;;;;;;;4.65;1.63;;;;;;;10.25;58.90;100853.03;5470068;25;99686;-75
2024/04/18 01:00:00;;;;;;;2.25;1.42;;;;;;;10.29;59.18;100853.81;5475316;25;97157;-76
2024/04/18 01:02:29;;;;;;;4.38;1.45;;;;;;;10.38;58.74;100849.06;5469771;25;94833;-75
2024/04/18 01:04:58;;;;;;;2.22;1.58;;;;;;;10.26;59.28;100853.91;5473201;25;95293;-76
2024/04/18 01:07:26;;;;;;;3.58;1.65;;;;;;;10.42;58.88;100855.13;5472355;25;95514;-75
2024/04/18 01:09:54;;;;;;;2.85;1.60;;;;;;;10.29;59.46;100856.44;5471483;25;99049;-74
2024/04/18 01:12:20;;;;;;;2.67;1.60;;;;;;;10.33;59.30;100863.34;5464164;25;95650;-75
2024/04/18 01:14:47;;;;;;;;;;;;;;;10.25;59.88;100862.72;5479931;25;94962;-76
2024/04/18 01:17:13;;;;;;;4.80;2.15;;;;;;;10.26;59.57;100865.31;5469062;25;96831;-75
2024/04/18 01:19:41;;;;;;;;;;;;;;;10.08;60.40;100865.88;5473914;25;96768;-74
2024/04/18 01:22:06;;;;;;;4.07;1.67;;;;;;;10.23;59.79;100859.28;5471310;25;95039;-75
2024/04/18 01:24:36;;;;;;;;;;;;;;;10.11;60.05;100859.66;5488313;25;94952;-75
2024/04/18 01:27:05;;;;;;;4.05;1.60;;;;;;;10.05;60.12;100850.13;5470044;25;95505;-74
2024/04/18 01:29:33;;;;;;;1.83;1.20;;;;;;;10.13;60.11;100865.72;5468294;25;97320;-76
2024/04/18 01:31:58;;;;;;;1.58;1.35;;;;;;;10.05;60.43;100859.81;5475078;25;94792;-74
2024/04/18 01:34:26;;;;;;;;;;;;;;;10.18;60.08;100864.69;5467001;25;94986;-78
2024/04/18 01:36:52;;;;;;;3.80;1.60;;;;;;;10.01;60.14;100861.72;5463966;25;96978;-77
2024/04/18 01:39:20;;;;;;;;;;;;;;;10.07;60.65;100865.94;5468276;25;96216;-79
2024/04/18 01:41:45;;;;;;;2.55;1.63;;;;;;;9.98;60.17;100867.94;5477655;25;94887;-78
2024/04/18 01:44:16;;;;;;;;;;;;;;;10.03;60.49;100870.44;5478486;25;94894;-78
2024/04/18 01:46:42;;;;;;;2.28;1.70;;;;;;;10.08;60.09;100873.81;5459586;25;95948;-78
2024/04/18 01:49:09;;;;;;;;;;;;;;;10.03;60.60;100875.72;5480049;25;96945;-78
2024/04/18 01:51:35;;;;;;;2.30;1.65;;;;;;;10.10;60.19;100873.75;5475741;25;95668;-76
2024/04/18 01:54:03;;;;;;;;;;;;;;;9.82;60.78;100874.63;5482075;25;94836;-76
2024/04/18 01:56:28;;;;;;;3.97;2.03;;;;;;;9.93;60.50;100883.06;5477900;25;95616;-78
2024/04/18 01:59:02;;;;;;;;;;;;;;;10.02;60.50;100881.06;5477665;25;96928;-78
2024/04/18 02:01:30;;;;;;;3.20;2.13;;;;;;;9.96;60.24;100887.38;5479020;25;94981;-75
2024/04/18 02:03:58;;;;;;;7.35;2.08;;;;;;;9.87;60.28;100883.25;5475172;25;95021;-74
2024/04/18 02:06:23;;;;;;;3.05;2.30;;;;;;;9.82;60.71;100887.81;5470591;25;99890;-75
2024/04/18 02:08:51;;;;;;;;;;;;;;;9.78;61.02;100893.22;5475945;25;97029;-74
2024/04/18 02:11:17;;;;;;;4.32;2.60;;;;;;;9.74;60.97;100892.44;5466294;25;95242;-74
2024/04/18 02:13:44;;;;;;;;;;;;;;;9.71;60.82;100892.56;5481212;25;95162;-74
2024/04/18 02:16:10;;;;;;;8.35;3.30;;;;;;;9.69;60.74;100888.22;5478125;25;96760;-78
2024/04/18 02:18:40;;;;;;;;;;;;;;;9.68;60.80;100894.41;5485114;25;96218;-80
2024/04/18 02:21:06;;;;;;;3.80;2.17;;;;;;;9.72;60.67;100888.09;5475102;25;95008;-76
2024/04/18 02:23:34;;;;;;;;;;;;;;;9.54;61.64;100900.06;5479126;25;94930;-75
2024/04/18 02:25:59;;;;;;;3.33;1.70;;;;;;;9.60;61.15;100897.25;5474699;25;96715;-76
2024/04/18 02:28:27;;;;;;;;;;;;;;;9.66;61.33;100897.06;5476965;25;95888;-76
2024/04/18 02:30:53;;;;;;;2.95;1.90;;;;;;;9.65;60.84;100903.25;5477413;25;94880;-76
2024/04/18 02:33:20;;;;;;;;;;;;;;;9.76;60.57;100901.19;5473321;25;95033;-76
2024/04/18 02:35:49;;;;;;;5.25;1.90;;;;;;;9.67;60.65;100908.50;5470742;25;98548;-74
2024/04/18 02:38:17;;;;;;;4.38;2.13;;;;;;;9.78;60.27;100907.25;5470336;25;97177;-75
2024/04/18 02:40:42;;;;;;;5.63;2.05;;;;;;;9.70;60.69;100918.97;5466700;25;94806;-76
2024/04/18 02:43:10;;;;;;;;;;;;;;;9.70;60.61;100921.63;5468364;25;95471;-74
2024/04/18 02:45:36;;;;;;;3.13;1.80;;;;;;;9.64;60.92;100921.78;5468165;25;98176;-75
2024/04/18 02:48:04;;;;;;;;;;;;;;;9.68;60.83;100916.38;5473182;25;94808;-76
2024/04/18 02:50:29;;;;;;;4.43;2.00;;;;;;;9.64;60.57;100927.94;5462628;25;95127;-76
2024/04/18 02:52:59;;;;;;;;;;;;;;;9.65;60.79;100923.53;5476330;25;94792;-74
2024/04/18 02:55:25;;;;;;;3.78;2.05;;;;;;;9.41;61.23;100917.16;5479244;25;96554;-75
2024/04/18 02:57:53;;;;;;;;;;;;;;;9.46;61.35;100925.78;5493547;25;97136;-76
2024/04/18 03:00:18;;;;;;;4.05;2.03;;;;;;;9.44;60.99;100925.00;5481601;25;94642;-76
2024/04/18 03:02:46;;;;;;;;;;;;;;;9.34;61.88;100927.00;5487245;25;95802;-75
2024/04/18 03:05:12;;;;;;;3.00;1.90;;;;;;;9.27;62.03;100929.84;5476705;25;99744;-75
2024/04/18 03:07:40;;;;;;;;;;;;;;;9.53;61.35;100922.09;5487784;25;96253;-75
2024/04/18 03:10:08;;;;;;;3.60;1.70;;;;;;;9.35;61.41;100925.25;5478632;25;95032;-75
2024/04/18 03:12:36;;;;;;;2.75;1.80;;;;;;;9.38;60.95;100919.91;5492651;25;94926;-75
2024/04/18 03:15:03;;;;;;;2.58;1.80;;;;;;;9.39;61.23;100927.75;5490481;25;99631;-74
2024/04/18 03:17:31;;;;;;;2.75;2.08;;;;;;;9.48;60.89;100932.78;5482828;25;98123;-74
2024/04/18 03:19:56;;;;;;;2.08;1.88;;;;;;;9.43;61.14;100928.53;5487535;25;94654;-77
2024/04/18 03:22:24;;;;;;;;;;;;;;;9.46;61.24;100928.44;5490847;25;95029;-77
2024/04/18 03:24:50;;;;;;;5.63;2.53;;;;;;;9.27;61.50;100936.00;5475397;25;94873;-76
2024/04/18 03:27:20;;;;;;;;;;;;;;;9.44;61.61;100941.69;5484400;25;96138;-76
2024/04/18 03:29:46;;;;;;;5.15;2.20;;;;;;;9.37;61.54;100939.25;5482213;25;94875;-76
2024/04/18 03:32:13;;;;;;;;;;;;;;;9.41;61.64;100936.47;5479710;25;94922;-76
2024/04/18 03:34:39;;;;;;;2.60;2.20;;;;;;;9.44;61.28;100939.06;5475099;25;95687;-78
2024/04/18 03:37:07;;;;;;;;;;;;;;;9.46;61.52;100936.34;5477144;25;96874;-76
2024/04/18 03:39:35;;;;;;;2.80;1.92;;;;;;;9.28;62.04;100944.78;5471696;25;94803;-77
2024/04/18 03:42:03;;;;;;;3.45;1.98;;;;;;;9.05;62.32;100946.25;5462271;25;95060;-77
2024/04/18 03:44:33;;;;;;;10.00;5.50;;;;;;;9.26;62.06;100942.16;5474590;25;97390;-77
2024/04/18 03:47:01;;;;;;;5.32;2.60;;;;;;;9.34;61.99;100944.59;5473421;25;97212;-76
2024/04/18 03:49:30;;;;;;;3.17;2.08;;;;;;;9.19;62.20;100951.16;5463863;25;94879;-76
2024/04/18 03:51:56;;;;;;;3.05;2.42;;;;;;;9.30;61.68;100951.75;5493043;25;95947;-76
2024/04/18 03:54:24;;;;;;;;;;;;;;;9.36;61.76;100948.94;5493246;25;97802;-75
2024/04/18 03:56:49;;;;;;;6.13;2.47;;;;;;;9.31;61.68;100955.25;5485147;25;99921;-76
2024/04/18 03:59:17;;;;;;;;;;;;;;;9.30;62.16;100950.88;5493058;25;95159;-75
2024/04/18 04:01:45;;;;;;;6.47;2.20;;;;;;;8.99;63.35;100966.63;5489527;25;96287;-76
2024/04/18 04:04:13;;;;;;;4.38;2.13;;;;;;;8.76;64.61;100968.06;5482648;25;97387;-76
2024/04/18 04:06:39;;;;;;;3.20;2.38;;;;;;;8.66;65.21;100958.63;5480334;25;96889;-76
2024/04/18 04:09:07;;;;;;;;;;;;;;;8.76;65.17;100964.56;5474476;25;94706;-76
2024/04/18 04:11:32;;;;;;;4.78;2.38;;;;;;;8.73;65.00;100962.84;5476135;25;94869;-76
2024/04/18 04:14:00;;;;;;;;;;;;;;;9.01;64.30;100965.69;5495437;25;98611;-76
2024/04/18 04:16:26;;;;;;;3.60;2.40;;;;;;;9.04;64.11;100973.53;5485668;25;95699;-76
2024/04/18 04:18:57;;;;;;;;;;;;;;;9.03;64.17;100976.19;5482983;25;95407;-76
2024/04/18 04:21:22;;;;;;;6.38;2.90;;;;;;;9.09;63.11;100976.91;5489789;25;95097;-76
2024/04/18 04:23:50;;;;;;;;;;;;;;;9.28;63.12;100979.91;5488615;25;96194;-75
2024/04/18 04:26:16;;;;;;;5.68;2.58;;;;;;;9.43;61.78;100986.56;5484941;25;96116;-76
2024/04/18 04:28:44;;;;;;;;;;;;;;;9.36;62.34;100980.59;5478935;25;94684;-76
2024/04/18 04:31:09;;;;;;;4.47;3.10;;;;;;;9.18;63.00;100984.59;5467074;25;94889;-76
2024/04/18 04:33:37;;;;;;;;;;;;;;;8.86;64.06;100981.88;5468165;25;96932;-75
2024/04/18 04:36:06;;;;;;;4.03;2.80;;;;;;;8.66;64.44;100987.63;5468538;25;96111;-76
2024/04/18 04:38:34;;;;;;;4.90;2.78;;;;;;;8.53;65.14;100991.47;5474012;25;95825;-76
2024/04/18 04:40:59;;;;;;;5.80;3.03;;;;;;;8.56;65.60;100990.50;5464542;25;95266;-76
2024/04/18 04:43:27;;;;;;;;;;;;;;;8.76;65.39;101001.44;5477179;25;96985;-77
2024/04/18 04:45:54;;;;;;;4.53;2.67;;;;;;;8.61;65.52;101004.44;5475629;25;96813;-75
2024/04/18 04:48:22;;;;;;;5.18;2.47;;;;;;;8.92;64.81;101002.81;5485422;25;95181;-76
2024/04/18 04:50:53;;;;;;;6.20;3.30;;;;;;;8.67;65.12;101005.16;5486741;25;94924;-76
2024/04/18 04:53:24;;;;;;;4.43;3.22;;;;;;;8.94;64.56;101006.28;5487844;25;96075;-77
2024/04/18 04:55:49;;;;;;;5.88;3.20;;;;;;;9.26;63.80;101017.78;5467250;25;95785;-77
2024/04/18 04:58:18;;;;;;;;;;;;;;;9.34;62.82;101026.34;5479758;25;95150;-77
2024/04/18 05:00:43;;;;;;;7.43;3.20;;;;;;;9.42;62.45;101019.13;5490422;25;95065;-76
2024/04/18 05:03:11;;;;;;;;;;;;;;;9.34;62.75;101031.63;5476770;25;99356;-77
2024/04/18 05:05:41;;;;;;;10.35;3.13;;;;;;;9.70;61.31;101029.81;5468807;25;96099;-77
2024/04/18 05:08:09;;;;;;;4.95;3.03;;;;;;;9.42;62.04;101034.94;5470674;25;95282;-75
2024/04/18 05:10:43;;;;;;;6.50;3.33;;;;;;;9.18;62.70;101039.94;5480915;25;94881;-78
2024/04/18 05:13:08;;;;;;;8.75;3.75;;;;;;;9.30;62.56;101040.53;5468811;25;97326;-76
2024/04/18 05:15:36;;;;;;;;;;;;;;;9.33;62.45;101046.59;5483269;25;96882;-76
2024/04/18 05:18:03;;;;;;;5.47;3.00;;;;;;;9.67;61.48;101051.84;5470835;25;95972;-75
2024/04/18 05:20:31;;;;;;;7.32;3.35;;;;;;;9.56;61.09;101049.50;5473224;25;96430;-76
2024/04/18 05:22:57;;;;;;;5.93;3.22;;;;;;;9.09;63.20;101048.06;5467297;25;96882;-76
2024/04/18 05:25:25;;;;;;;;;;;;;;;8.75;64.38;101055.03;5477370;25;97417;-76
2024/04/18 05:27:55;;;;;;;6.22;3.33;;;;;;;8.78;64.64;101055.00;5470027;25;94756;-73
2024/04/18 05:33:07;;;;;;;8.27;4.03;;;;;;;9.11;63.32;101053.31;5470487;25;95378;-73
2024/04/18 05:35:35;;;;;;;9.85;3.78;;;;;;;9.13;63.41;101060.25;5472926;25;98847;-73
2024/04/18 05:38:03;;;;;;;8.73;4.15;;;;;;;9.23;63.25;101063.56;5469618;25;94774;-76
2024/04/18 05:40:31;;;;;;;9.55;4.20;;;;;;;9.27;62.71;101067.84;5459383;25;95009;-77
2024/04/18 05:43:02;;;;;;;11.90;4.50;;;;;;;9.47;62.44;101073.47;5477516;25;97038;-77
2024/04/18 05:45:30;;;;;;;13.40;5.43;;;;;;;9.55;61.86;101076.78;5472246;25;97172;-76
2024/04/18 05:47:58;;;;;;;13.23;5.53;;;;;;;9.70;61.10;101080.81;5471189;25;94793;-78
2024/04/18 05:50:26;;;;;;;18.50;6.50;;;;;;;9.56;61.26;101083.81;5459418;25;94874;-77
2024/04/18 05:52:54;;;;;;;16.25;7.25;;;;;;;9.78;60.54;101078.81;5469903;25;100320;-77
2024/04/18 05:55:22;;;;;;;18.40;7.30;;;;;;;9.97;59.97;101080.06;5468368;25;97009;-77
2024/04/18 05:57:51;;;;;;;22.60;9.82;;;;;;;10.08;59.86;101092.94;5471925;25;94777;-78
2024/04/18 06:00:22;;;;;;;16.10;7.32;;;;;;;10.61;57.81;101093.22;5457394;25;96927;-78
2024/04/18 06:02:47;;;;;;;17.13;7.18;;;;;;;11.12;55.88;101094.22;5470146;25;99228;-78
2024/04/18 06:05:15;;;;;;;;;;;;;;;11.06;55.22;101090.91;5471137;25;98277;-76
2024/04/18 06:07:43;;;;;;;12.52;6.18;;;;;;;11.19;55.40;101097.53;5463266;25;95478;-78
2024/04/18 06:10:12;;;;;;;15.05;5.80;;;;;;;11.43;54.56;101095.84;5451626;25;95086;-77
2024/04/18 06:12:40;;;;;;;14.35;5.85;;;;;;;11.39;54.09;101099.53;5473502;25;95948;-77
2024/04/18 06:15:08;;;;;;;11.90;4.80;;;;;;;11.36;53.63;101108.41;5476164;25;97410;-77
2024/04/18 06:17:39;;;;;;;10.10;4.53;;;;;;;11.48;53.55;101107.19;5473447;25;94793;-77
2024/04/18 06:20:08;;;;;;;7.25;4.13;;;;;;;11.61;53.37;101100.56;5466336;25;95333;-78
2024/04/18 06:22:36;;;;;;;9.32;3.75;;;;;;;11.62;52.97;101102.25;5476494;25;99061;-77
2024/04/18 06:25:05;;;;;;;9.70;4.00;;;;;;;11.80;52.46;101106.09;5471457;25;95664;-78
2024/04/18 06:27:33;;;;;;;7.15;3.70;;;;;;;11.56;52.69;101113.91;5463826;25;95024;-77
2024/04/18 06:30:01;;;;;;;5.57;3.25;;;;;;;12.09;52.30;101116.53;5469500;25;95425;-78
2024/04/18 06:32:29;;;;;;;8.13;3.25;;;;;;;12.26;50.71;101116.78;5469379;25;99468;-77
2024/04/18 06:35:00;;;;;;;8.32;3.60;;;;;;;12.34;51.06;101111.19;5478720;25;99407;-78
2024/04/18 06:37:28;;;;;;;5.53;2.90;;;;;;;12.38;49.56;101110.16;5468944;25;97085;-79
2024/04/18 06:39:56;;;;;;;6.63;2.90;;;;;;;12.35;50.70;101113.78;5475263;25;96262;-78
2024/04/18 06:42:24;;;;;;;4.07;2.90;;;;;;;12.63;49.73;101124.22;5473447;25;97271;-78
2024/04/18 06:44:52;;;;;;;6.35;2.75;;;;;;;13.25;48.12;101117.44;5471770;25;99517;-78
2024/04/18 06:47:20;;;;;;;7.22;2.80;;;;;;;13.16;47.72;101121.31;5458623;25;95002;-80
2024/04/18 06:49:48;;;;;;;5.50;2.92;;;;;;;12.94;47.96;101123.03;5471518;25;94912;-77
2024/04/18 06:52:19;;;;;;;11.05;3.33;;;;;;;13.10;48.07;101122.38;5473592;25;97979;-78
2024/04/18 06:54:47;;;;;;;6.95;2.90;;;;;;;13.12;47.47;101130.28;5471549;25;96109;-78
2024/04/18 06:57:15;;;;;;;3.85;1.88;;;;;;;12.78;48.31;101131.59;5474002;25;95059;-78
2024/04/18 06:59:43;;;;;;;6.72;2.50;;;;;;;12.61;49.16;101138.44;5477669;25;94896;-79
2024/04/18 07:02:11;;;;;;;6.15;2.45;;;;;;;12.70;49.23;101140.78;5478031;25;96851;-79
2024/04/18 07:04:43;;;;;;;6.25;2.50;;;;;;;13.07;47.51;101137.53;5476110;25;95718;-78
2024/04/18 07:07:12;;;;;;;6.97;1.90;;;;;;;13.72;46.26;101140.19;5473441;25;95152;-77
2024/04/18 07:09:42;;;;;;;3.20;2.05;;;;;;;13.90;46.06;101139.44;5464238;25;95096;-78
2024/04/18 07:12:11;;;;;;;4.45;2.00;;;;;;;14.43;44.97;101151.34;5477309;25;96891;-78
2024/04/18 07:14:39;;;;;;;6.22;2.25;;;;;;;15.21;43.02;101143.22;5481586;25;95392;-76
2024/04/18 07:17:07;;;;;;;16.83;6.85;;;;;;;15.30;41.66;101148.09;5480483;25;94827;-77
2024/04/18 07:19:35;;;;;;;5.78;2.60;;;;;;;15.52;40.40;101147.00;5473710;25;95259;-77
2024/04/18 07:22:03;;;;;;;6.13;2.45;;;;;;;14.71;41.95;101159.75;5478891;25;96226;-77
2024/04/18 07:24:32;;;;;;;2.80;1.65;;;;;;;15.02;40.63;101154.75;5472938;25;98126;-77
2024/04/18 07:27:03;;;;;;;3.78;1.90;;;;;;;14.19;41.91;101158.53;5470637;25;94676;-77
2024/04/18 07:29:31;;;;;;;4.07;1.83;;;;;;;14.53;41.17;101157.94;5470564;25;95514;-78
2024/04/18 07:31:59;;;;;;;4.07;1.45;;;;;;;14.64;40.74;101160.97;5463004;25;98152;-78
2024/04/18 07:34:27;;;;;;;6.68;2.22;;;;;;;15.00;39.68;101164.59;5473578;25;99353;-77
2024/04/18 07:36:55;;;;;;;5.60;1.45;;;;;;;14.81;39.01;101166.41;5474102;25;95492;-79
2024/04/18 07:39:24;;;;;;;2.10;1.30;;;;;;;15.22;39.10;101163.59;5478795;25;95223;-78
2024/04/18 07:41:52;;;;;;;3.30;1.58;;;;;;;15.13;38.71;101162.22;5478701;25;97685;-79
2024/04/18 07:44:24;;;;;;;3.30;1.30;;;;;;;15.66;37.33;101162.31;5473891;25;97010;-78
2024/04/18 07:46:52;;;;;;;7.63;1.40;;;;;;;15.46;36.93;101160.59;5473967;25;95475;-78
2024/04/18 07:49:20;;;;;;;4.53;1.55;;;;;;;16.00;36.31;101157.94;5469750;25;95576;-78
2024/04/18 07:51:48;;;;;;;3.88;1.10;;;;;;;16.00;35.32;101164.13;5478347;25;96853;-78
2024/04/18 07:54:20;;;;;;;1.98;1.00;;;;;;;16.49;34.28;101166.88;5471315;25;95038;-77
2024/04/18 07:56:48;;;;;;;3.00;1.20;;;;;;;16.48;33.50;101155.34;5463790;25;97068;-78
2024/04/18 07:59:16;;;;;;;3.40;1.23;;;;;;;16.10;33.98;101168.03;5478587;25;95212;-78
2024/04/18 08:01:46;;;;;;;6.20;1.20;;;;;;;16.01;33.72;101162.34;5479277;25;96858;-77
2024/04/18 08:04:15;;;;;;;3.42;1.00;;;;;;;15.95;33.76;101166.16;5471979;25;94965;-77
2024/04/18 08:06:43;;;;;;;1.95;1.40;;;;;;;16.06;34.15;101170.94;5469070;25;94720;-78
2024/04/18 08:09:11;;;;;;;3.45;1.00;;;;;;;15.82;34.72;101165.91;5467270;25;94887;-78
2024/04/18 08:11:39;;;;;;;3.60;1.10;;;;;;;16.16;33.69;101164.19;5469400;25;100196;-77
2024/04/18 08:14:07;;;;;;;1.73;1.00;;;;;;;15.88;33.81;101164.75;5464969;25;97204;-78
2024/04/18 08:16:35;;;;;;;5.43;0.73;;;;;;;15.94;32.45;101167.97;5478543;25;94913;-79
2024/04/18 08:19:06;;;;;;;2.67;0.80;;;;;;;16.07;31.89;101168.22;5465072;25;95332;-78
2024/04/18 08:21:34;;;;;;;2.60;1.15;;;;;;;16.25;31.86;101175.25;5464913;25;97208;-78
2024/04/18 08:24:02;;;;;;;1.02;0.60;;;;;;;16.04;30.76;101168.34;5481154;25;99555;-77
2024/04/18 08:26:30;;;;;;;1.73;0.50;;;;;;;16.21;30.93;101175.50;5486396;25;95015;-77
2024/04/18 08:28:58;;;;;;;1.33;0.80;;;;;;;15.97;31.66;101179.41;5470964;25;95044;-78
2024/04/18 08:31:26;;;;;;;2.78;0.60;;;;;;;16.25;31.28;101180.56;5473276;25;96892;-78
2024/04/18 08:33:55;;;;;;;1.23;0.52;;;;;;;16.18;31.33;101175.63;5470496;25;98615;-81
2024/04/18 08:36:26;;;;;;;2.38;0.63;;;;;;;15.69;32.44;101186.09;5480731;25;94706;-78
2024/04/18 08:38:54;;;;;;;1.20;0.80;;;;;;;15.80;32.00;101182.94;5474244;25;94845;-77
2024/04/18 08:41:22;;;;;;;0.75;0.50;;;;;;;16.18;32.06;101184.50;5476317;25;95768;-77
2024/04/18 08:43:51;;;;;;;2.55;0.70;;;;;;;16.21;31.38;101184.31;5481413;25;96057;-78
2024/04/18 08:46:19;;;;;;;1.50;0.70;;;;;;;15.68;31.86;101180.88;5479880;25;94904;-79
2024/04/18 08:48:48;;;;;;;2.25;0.70;;;;;;;15.99;31.64;101167.72;5472229;25;95072;-78
2024/04/18 08:51:17;;;;;;;1.80;0.85;;;;;;;15.76;31.60;101168.00;5480098;25;97088;-77
2024/04/18 08:53:48;;;;;;;3.60;1.05;;;;;;;15.95;31.41;101160.81;5469029;25;99745;-77
2024/04/18 08:56:17;;;;;;;4.05;0.65;;;;;;;15.99;30.60;101162.41;5479055;25;94714;-78
2024/04/18 08:58:45;;;;;;;1.05;0.50;;;;;;;15.64;31.16;101168.63;5474913;25;94891;-78
2024/04/18 09:01:13;;;;;;;0.40;0.40;;;;;;;15.91;31.06;101160.13;5468654;25;97275;-78
2024/04/18 09:03:42;;;;;;;2.75;0.57;;;;;;;16.08;31.06;101163.75;5479973;25;96506;-77
2024/04/18 09:06:13;;;;;;;1.48;1.10;;;;;;;15.81;30.76;101153.56;5460411;25;95217;-77
2024/04/18 09:08:41;;;;;;;2.03;1.48;;;;;;;15.60;30.75;101170.59;5472910;25;94809;-78
2024/04/18 09:11:12;;;;;;;2.33;0.60;;;;;;;16.54;30.12;101159.53;5476177;25;95709;-78
2024/04/18 09:13:40;;;;;;;2.08;0.47;;;;;;;16.72;28.89;101163.88;5471952;25;96792;-78
2024/04/18 09:16:08;;;;;;;11.10;2.63;;;;;;;16.67;29.22;101157.94;5476144;25;95208;-77
2024/04/18 09:18:38;;;;;;;2.95;0.60;;;;;;;16.59;28.48;101162.78;5473041;25;94977;-78
2024/04/18 09:21:09;;;;;;;2.13;0.60;;;;;;;16.81;28.64;101167.84;5471757;25;95947;-76
2024/04/18 09:23:38;;;;;;;2.78;0.80;;;;;;;16.65;29.03;101170.50;5475430;25;97136;-78
2024/04/18 09:26:07;;;;;;;3.03;0.95;;;;;;;16.74;28.79;101162.84;5474685;25;94814;-78
2024/04/18 09:28:38;;;;;;;3.20;0.90;;;;;;;17.49;28.53;101164.00;5473622;25;95362;-78
2024/04/18 09:31:06;;;;;;;2.50;0.50;;;;;;;17.22;27.86;101169.09;5478279;25;96127;-77
2024/04/18 09:33:35;;;;;;;6.25;0.88;;;;;;;16.55;29.15;101164.75;5475395;25;96074;-79
2024/04/18 09:36:04;;;;;;;2.47;1.13;;;;;;;16.64;29.60;101172.31;5480085;25;95565;-77
2024/04/18 09:38:33;;;;;;;1.40;0.55;;;;;;;16.34;29.72;101168.56;5466280;25;95554;-77
2024/04/18 09:41:08;;;;;;;1.55;0.82;;;;;;;15.78;30.20;101171.47;5473438;25;96007;-78
2024/04/18 09:43:46;;;;;;;0.80;0.55;;;;;;;15.15;31.43;101179.00;5483957;25;98646;-78
2024/04/18 09:46:16;;;;;;;38.15;3.08;;;;;;;15.49;31.18;101172.91;5474476;25;94859;-79
2024/04/18 09:48:45;;;;;;;1.88;0.80;;;;;;;14.67;32.05;101172.34;5474588;25;95248;-78
2024/04/18 09:51:15;;;;;;;4.00;0.90;;;;;;;15.08;31.68;101172.22;5469045;25;95510;-79
2024/04/18 09:53:45;;;;;;;9.18;2.30;;;;;;;15.40;31.39;101171.53;5478021;25;94866;-72
2024/04/18 09:56:15;;;;;;;2.60;0.40;;;;;;;15.84;30.25;101164.03;5470550;25;94729;-74
2024/04/18 09:58:48;;;;;;;1.70;1.00;;;;;;;16.05;29.93;101164.75;5469119;25;96887;-73
2024/04/18 10:01:16;;;;;;;4.10;0.60;;;;;;;16.43;29.24;101161.88;5473632;25;99089;-73
2024/04/18 10:03:45;;;;;;;1.80;0.40;;;;;;;16.30;29.22;101167.00;5465307;25;97283;-74
2024/04/18 10:06:16;;;;;;;1.60;0.80;;;;;;;16.40;29.33;101170.06;5476723;25;96512;-74
2024/04/18 10:08:51;;;;;;;4.78;1.50;;;;;;;16.29;29.50;101166.13;5466340;25;95254;-73
2024/04/18 10:11:22;;;;;;;7.37;1.20;;;;;;;16.71;29.33;101170.16;5472789;25;96826;-73
2024/04/18 10:13:53;;;;;;;0.43;0.40;;;;;;;17.03;28.42;101169.25;5482697;25;96718;-73
2024/04/18 10:16:22;;;;;;;1.27;0.60;;;;;;;17.09;28.54;101168.91;5480364;25;94738;-74
2024/04/18 10:18:50;;;;;;;2.35;0.60;;;;;;;17.12;28.56;101167.91;5479927;25;95240;-73
2024/04/18 10:21:28;;;;;;;1.42;0.77;;;;;;;17.25;28.44;101173.41;5469312;25;97629;-73
2024/04/18 10:23:56;;;;;;;3.45;0.82;;;;;;;17.08;28.31;101169.84;5481848;25;100049;-73
2024/04/18 10:26:25;;;;;;;1.92;0.95;;;;;;;17.38;29.17;101169.97;5470285;25;94695;-73
2024/04/18 10:28:56;;;;;;;6.47;1.25;;;;;;;17.24;28.95;101169.88;5460667;25;94866;-73
2024/04/18 10:31:29;;;;;;;16.35;2.97;;;;;;;16.84;29.78;101176.56;5471572;25;95712;-73
2024/04/18 10:33:58;;;;;;;7.55;1.70;;;;;;;17.01;30.08;101173.81;5468161;25;96264;-74
2024/04/18 10:36:27;;;;;;;3.47;1.00;;;;;;;17.34;29.90;101168.38;5481837;25;95388;-74
2024/04/18 10:38:55;;;;;;;5.70;1.15;;;;;;;17.53;29.19;101169.06;5454536;25;94837;-73
2024/04/18 10:41:25;;;;;;;1.67;0.70;;;;;;;17.44;28.74;101169.59;5467942;25;96884;-73
2024/04/18 10:44:06;;;;;;;1.50;0.98;;;;;;;16.54;30.06;101160.34;5476982;25;99813;-76
2024/04/18 10:46:35;;;;;;;0.40;0.40;;;;;;;16.13;30.82;101159.88;5463788;25;94911;-73
2024/04/18 10:49:03;;;;;;;2.90;0.95;;;;;;;15.90;31.36;101177.06;5479996;25;94971;-74
2024/04/18 10:51:34;;;;;;;1.80;0.73;;;;;;;16.42;30.63;101170.81;5471984;25;98527;-76
2024/04/18 10:54:02;;;;;;;3.03;0.75;;;;;;;16.65;30.51;101170.50;5479863;25;100139;-74
2024/04/18 10:56:30;;;;;;;1.40;0.82;;;;;;;17.18;30.30;101172.03;5472197;25;94739;-73
2024/04/18 10:59:01;;;;;;;2.65;0.82;;;;;;;16.30;30.97;101181.19;5479993;25;94802;-75
2024/04/18 11:01:31;;;;;;;12.38;1.33;;;;;;;15.86;31.82;101177.28;5464307;25;95367;-74
2024/04/18 11:03:59;;;;;;;7.03;1.25;;;;;;;15.80;32.52;101178.47;5473340;25;97132;-77
2024/04/18 11:06:27;;;;;;;0.60;0.60;;;;;;;16.51;32.18;101181.00;5474454;25;94859;-80
2024/04/18 11:08:56;;;;;;;1.73;0.70;;;;;;;16.12;33.18;101184.81;5468063;25;94877;-73
2024/04/18 11:11:27;;;;;;;3.15;0.70;;;;;;;16.55;32.52;101185.22;5471252;25;99825;-75
2024/04/18 11:13:56;;;;;;;1.83;0.55;;;;;;;15.88;33.58;101172.75;5480116;25;97248;-73
2024/04/18 11:16:27;;;;;;;2.25;0.60;;;;;;;16.02;33.55;101180.88;5461762;25;94785;-74
2024/04/18 11:18:56;;;;;;;3.50;0.65;;;;;;;15.87;34.02;101181.69;5478256;25;94899;-74
2024/04/18 11:21:26;;;;;;;1.67;0.70;;;;;;;15.71;34.55;101186.03;5460743;25;96954;-74
2024/04/18 11:23:57;;;;;;;6.28;1.10;;;;;;;15.56;34.93;101192.97;5467431;25;95952;-75
2024/04/18 11:26:27;;;;;;;4.00;0.90;;;;;;;15.67;34.49;101193.34;5473401;25;95928;-74
2024/04/18 11:28:58;;;;;;;5.35;1.13;;;;;;;15.95;33.94;101183.00;5479775;25;94809;-74
2024/04/18 11:31:29;;;;;;;1.33;0.68;;;;;;;15.67;34.01;101187.16;5470133;25;95606;-74
2024/04/18 11:33:57;;;;;;;1.02;0.60;;;;;;;15.73;33.77;101193.03;5464870;25;95776;-72
2024/04/18 11:36:26;;;;;;;2.50;0.80;;;;;;;15.97;33.70;101179.41;5481511;25;95140;-75
2024/04/18 11:38:54;;;;;;;1.95;0.57;;;;;;;16.54;32.97;101175.53;5460520;25;94906;-74
2024/04/18 11:41:22;;;;;;;8.98;0.90;;;;;;;15.90;32.50;101186.84;5471751;25;97010;-72
2024/04/18 11:43:51;;;;;;;1.55;0.60;;;;;;;15.72;33.18;101177.97;5476800;25;97643;-74
2024/04/18 11:46:19;;;;;;;10.15;1.30;;;;;;;15.95;32.80;101169.66;5478655;25;95353;-74